createdAt,value
2023-04-16T00:00:33.869Z,10.82
2023-04-16T00:03:35.792Z,12.13
2023-04-16T00:06:37.622Z,11.85
2023-04-16T00:09:39.158Z,11.40
2023-04-16T00:12:41.153Z,11.73
2023-04-16T00:15:42.769Z,11.80
2023-04-16T00:18:44.402Z,12.77
2023-04-16T00:21:45.996Z,13.32
2023-04-16T00:24:47.589Z,14.90
2023-04-16T00:27:49.166Z,12.60
2023-04-16T00:30:51.153Z,14.20
2023-04-16T00:33:53.504Z,13.93
2023-04-16T00:36:55.082Z,13.13
2023-04-16T00:39:56.653Z,15.82
2023-04-16T00:42:58.196Z,12.90
2023-04-16T00:45:59.900Z,14.43
2023-04-16T00:49:03.033Z,17.10
2023-04-16T00:52:04.648Z,14.77
2023-04-16T00:55:08.120Z,13.70
2023-04-16T00:58:09.724Z,13.77
2023-04-16T01:01:11.502Z,16.60
2023-04-16T01:04:13.206Z,15.35
2023-04-16T01:07:14.918Z,18.15
2023-04-16T01:10:16.494Z,19.60
2023-04-16T01:13:18.119Z,20.08
2023-04-16T01:16:19.729Z,14.95
2023-04-16T01:19:21.374Z,16.95
2023-04-16T01:22:22.938Z,17.60
2023-04-16T01:25:24.524Z,16.63
2023-04-16T01:28:26.231Z,19.83
2023-04-16T01:31:27.863Z,23.95
2023-04-16T01:34:29.518Z,21.42
2023-04-16T01:37:31.181Z,20.60
2023-04-16T01:40:32.757Z,22.38
2023-04-16T01:43:34.401Z,23.60
2023-04-16T01:46:36.372Z,17.70
2023-04-16T01:49:38.245Z,16.20
2023-04-16T01:52:39.883Z,19.02
2023-04-16T01:55:41.438Z,21.55
2023-04-16T01:58:42.995Z,20.42
2023-04-16T02:01:44.667Z,22.10
2023-04-16T02:04:46.421Z,25.70
2023-04-16T02:07:47.989Z,27.25
2023-04-16T02:10:50.624Z,25.95
2023-04-16T02:13:52.234Z,26.52
2023-04-16T02:16:53.817Z,23.00
2023-04-16T02:19:55.551Z,22.90
2023-04-16T02:22:57.122Z,23.40
2023-04-16T02:25:58.884Z,24.95
2023-04-16T02:29:00.590Z,26.45
2023-04-16T02:32:02.255Z,30.85
2023-04-16T02:35:04.178Z,26.92
2023-04-16T02:38:06.082Z,32.28
2023-04-16T02:41:07.726Z,29.27
2023-04-16T02:44:09.317Z,26.77
2023-04-16T02:47:10.858Z,27.73
2023-04-16T02:50:12.493Z,29.42
2023-04-16T02:53:14.111Z,24.50
2023-04-16T02:56:15.873Z,26.27
2023-04-16T02:59:17.407Z,28.65
2023-04-16T03:02:19.033Z,26.23
2023-04-16T03:05:20.973Z,27.73
2023-04-16T03:08:22.615Z,25.02
2023-04-16T03:11:24.334Z,29.33
2023-04-16T03:14:26.023Z,34.05
2023-04-16T03:17:27.584Z,27.88
2023-04-16T03:20:29.149Z,27.33
2023-04-16T03:23:30.837Z,27.30
2023-04-16T03:26:32.399Z,22.10
2023-04-16T03:29:36.913Z,22.52
2023-04-16T03:32:38.853Z,21.42
2023-04-16T03:35:40.560Z,21.58
2023-04-16T03:38:42.146Z,22.90
2023-04-16T03:41:43.744Z,25.15
2023-04-16T03:44:45.386Z,22.02
2023-04-16T03:47:52.483Z,22.38
2023-04-16T03:50:54.221Z,22.70
2023-04-16T03:53:56.084Z,21.20
2023-04-16T03:56:57.732Z,21.70
2023-04-16T03:59:59.316Z,24.38
2023-04-16T04:03:01.073Z,22.83
2023-04-16T04:06:08.249Z,24.73
2023-04-16T04:09:09.968Z,25.90
2023-04-16T04:12:11.721Z,26.42
2023-04-16T04:15:13.424Z,22.67
2023-04-16T04:18:15.005Z,26.17
2023-04-16T04:21:16.595Z,25.88
2023-04-16T04:24:18.149Z,23.35
2023-04-16T04:27:19.714Z,22.42
2023-04-16T04:30:21.379Z,22.92
2023-04-16T04:33:23.010Z,23.00
2023-04-16T04:36:24.575Z,22.38
2023-04-16T04:39:26.310Z,23.65
2023-04-16T04:42:27.849Z,22.30
2023-04-16T04:45:31.272Z,20.17
2023-04-16T04:48:33.529Z,18.38
2023-04-16T04:51:35.250Z,18.67
2023-04-16T04:54:36.957Z,18.63
2023-04-16T04:57:38.517Z,18.90
2023-04-16T05:00:40.313Z,17.88
2023-04-16T05:03:42.005Z,17.00
2023-04-16T05:06:44.105Z,17.50
2023-04-16T05:09:45.798Z,16.45
2023-04-16T05:12:51.079Z,16.30
2023-04-16T05:15:52.690Z,15.80
2023-04-16T05:18:56.093Z,18.48
2023-04-16T05:21:57.698Z,17.13
2023-04-16T05:24:59.308Z,16.98
2023-04-16T05:28:00.997Z,16.90
2023-04-16T05:31:02.611Z,18.83
2023-04-16T05:34:04.250Z,18.98
2023-04-16T05:37:05.848Z,17.55
2023-04-16T05:40:08.211Z,16.33
2023-04-16T05:43:09.842Z,16.45
2023-04-16T05:46:11.528Z,15.07
2023-04-16T05:49:13.178Z,14.65
2023-04-16T05:52:15.367Z,14.25
2023-04-16T05:55:16.952Z,14.20
2023-04-16T05:58:18.546Z,14.88
2023-04-16T06:01:20.392Z,12.43
2023-04-16T06:04:21.966Z,13.27
2023-04-16T06:07:23.540Z,11.98
2023-04-16T06:10:25.416Z,11.80
2023-04-16T06:13:26.994Z,11.70
2023-04-16T06:16:28.647Z,12.35
2023-04-16T06:19:30.301Z,12.38
2023-04-16T06:22:33.014Z,11.65
2023-04-16T06:25:34.597Z,9.85
2023-04-16T06:28:36.206Z,11.95
2023-04-16T06:31:37.917Z,10.65
2023-04-16T06:34:39.690Z,10.73
2023-04-16T06:37:41.597Z,9.50
2023-04-16T06:40:43.186Z,8.55
2023-04-16T06:43:44.920Z,8.93
2023-04-16T06:46:46.517Z,8.20
2023-04-16T06:49:48.095Z,8.50
2023-04-16T06:52:49.680Z,7.75
2023-04-16T06:55:51.927Z,8.15
2023-04-16T06:58:53.504Z,7.75
2023-04-16T07:01:55.339Z,7.65
2023-04-16T07:04:56.952Z,7.68
2023-04-16T07:07:59.458Z,7.85
2023-04-16T07:11:01.140Z,6.43
2023-04-16T07:14:02.716Z,6.88
2023-04-16T07:17:04.295Z,6.55
2023-04-16T07:20:06.677Z,6.38
2023-04-16T07:23:08.229Z,6.13
2023-04-16T07:26:10.556Z,6.50
2023-04-16T07:29:12.398Z,5.53
2023-04-16T07:32:15.460Z,6.10
2023-04-16T07:35:17.461Z,6.05
2023-04-16T07:38:19.022Z,6.28
2023-04-16T07:41:20.606Z,6.22
2023-04-16T07:44:22.218Z,6.25
2023-04-16T07:47:23.849Z,6.25
2023-04-16T07:50:25.748Z,6.90
2023-04-16T07:53:27.352Z,5.70
2023-04-16T07:56:28.996Z,5.78
2023-04-16T07:59:30.781Z,5.15
2023-04-16T08:02:38.417Z,6.22
2023-04-16T08:05:40.253Z,5.72
2023-04-16T08:08:41.825Z,5.45
2023-04-16T08:11:43.462Z,5.75
2023-04-16T08:14:45.888Z,5.72
2023-04-16T08:17:47.419Z,5.43
2023-04-16T08:20:49.099Z,5.30
2023-04-16T08:23:50.664Z,4.80
2023-04-16T08:26:52.426Z,5.18
2023-04-16T08:29:54.101Z,5.75
2023-04-16T08:32:56.070Z,5.28
2023-04-16T08:35:57.866Z,5.68
2023-04-16T08:38:59.455Z,6.88
2023-04-16T08:42:04.756Z,6.00
2023-04-16T08:45:16.119Z,5.72
2023-04-16T08:48:22.042Z,5.55
2023-04-16T08:51:27.443Z,6.22
2023-04-16T08:54:38.627Z,5.78
2023-04-16T08:57:48.569Z,5.85
2023-04-16T09:00:51.109Z,5.30
2023-04-16T09:03:53.159Z,5.80
2023-04-16T09:06:59.398Z,5.38
2023-04-16T09:10:01.698Z,5.57
2023-04-16T09:13:03.514Z,4.55
2023-04-16T09:16:07.916Z,4.47
2023-04-16T09:19:09.649Z,4.65
2023-04-16T09:22:12.055Z,5.35
2023-04-16T09:25:15.369Z,4.28
2023-04-16T09:28:45.976Z,3.88
2023-04-16T09:32:05.471Z,3.97
2023-04-16T09:35:07.381Z,4.18
2023-04-16T09:38:08.994Z,4.28
2023-04-16T09:41:10.628Z,4.57
2023-04-16T09:44:12.229Z,3.58
2023-04-16T09:47:14.029Z,3.67
2023-04-16T09:50:18.632Z,3.72
2023-04-16T09:53:28.357Z,3.92
2023-04-16T09:56:30.562Z,3.42
2023-04-16T09:59:34.146Z,3.45
2023-04-16T10:02:39.422Z,3.22
2023-04-16T10:05:41.780Z,3.63
2023-04-16T10:08:49.651Z,3.38
2023-04-16T10:11:51.991Z,3.90
2023-04-16T10:14:53.539Z,3.63
2023-04-16T10:17:57.010Z,3.03
2023-04-16T10:20:59.227Z,2.95
2023-04-16T10:24:01.270Z,3.83
2023-04-16T10:27:03.286Z,3.25
2023-04-16T10:30:07.213Z,3.60
2023-04-16T10:33:09.887Z,2.67
2023-04-16T10:36:17.321Z,3.67
2023-04-16T10:39:21.345Z,2.70
2023-04-16T10:42:22.936Z,2.80
2023-04-16T10:45:32.726Z,2.72
2023-04-16T10:48:48.693Z,2.50
2023-04-16T10:51:54.716Z,1.48
2023-04-16T10:54:59.489Z,1.73
2023-04-16T10:58:01.099Z,1.52
2023-04-16T11:01:11.283Z,2.33
2023-04-16T11:04:22.341Z,1.95
2023-04-16T11:07:34.925Z,1.98
2023-04-16T11:10:39.496Z,1.73
2023-04-16T11:13:45.061Z,1.60
2023-04-16T11:16:46.690Z,1.75
2023-04-16T11:19:48.556Z,2.10
2023-04-16T11:22:55.004Z,1.98
2023-04-16T11:25:58.581Z,1.95
2023-04-16T11:29:00.445Z,2.10
2023-04-16T11:32:02.066Z,1.80
2023-04-16T11:35:13.921Z,1.65
2023-04-16T11:38:18.189Z,1.73
2023-04-16T11:41:21.922Z,1.52
2023-04-16T11:44:28.102Z,1.80
2023-04-16T11:47:31.817Z,1.55
2023-04-16T11:50:33.700Z,1.45
2023-04-16T11:53:36.823Z,1.77
2023-04-16T11:56:38.382Z,1.17
2023-04-16T12:00:02.745Z,1.60
2023-04-16T12:03:05.637Z,1.20
2023-04-16T12:06:09.109Z,1.45
2023-04-16T12:09:26.310Z,1.13
2023-04-16T12:12:31.449Z,1.00
2023-04-16T12:15:50.931Z,1.27
2023-04-16T12:19:00.496Z,0.85
2023-04-16T12:22:02.125Z,0.90
2023-04-16T12:25:24.649Z,0.85
2023-04-16T12:28:31.679Z,0.73
2023-04-16T12:31:39.339Z,1.10
2023-04-16T12:34:51.561Z,1.00
2023-04-16T12:37:53.125Z,1.02
2023-04-16T12:40:57.097Z,0.93
2023-04-16T12:44:07.149Z,0.98
2023-04-16T12:47:08.790Z,1.35
2023-04-16T12:50:10.848Z,1.05
2023-04-16T12:53:12.467Z,1.05
2023-04-16T12:56:14.089Z,0.80
2023-04-16T12:59:17.381Z,1.58
2023-04-16T13:02:19.062Z,0.93
2023-04-16T13:05:21.061Z,0.90
2023-04-16T13:08:22.751Z,1.02
2023-04-16T13:11:24.411Z,1.10
2023-04-16T13:14:26.313Z,0.95
2023-04-16T13:17:27.953Z,0.90
2023-04-16T13:20:29.597Z,0.85
2023-04-16T13:23:31.550Z,0.77
2023-04-16T13:26:33.138Z,1.55
2023-04-16T13:29:36.731Z,1.33
2023-04-16T13:32:38.307Z,0.98
2023-04-16T13:35:39.901Z,1.15
2023-04-16T13:38:42.262Z,0.90
2023-04-16T13:41:43.845Z,1.80
2023-04-16T13:44:48.871Z,1.23
2023-04-16T13:47:50.549Z,1.17
2023-04-16T13:50:52.250Z,1.45
2023-04-16T13:53:55.960Z,1.15
2023-04-16T13:56:57.574Z,1.27
2023-04-16T14:00:11.867Z,1.55
2023-04-16T14:03:14.849Z,1.92
2023-04-16T14:06:18.138Z,2.78
2023-04-16T14:09:19.697Z,2.53
2023-04-16T14:12:21.373Z,2.33
2023-04-16T14:15:23.104Z,1.33
2023-04-16T14:18:24.665Z,0.95
2023-04-16T14:21:27.119Z,1.83
2023-04-16T14:24:29.246Z,1.48
2023-04-16T14:27:31.586Z,1.17
2023-04-16T14:30:33.178Z,1.55
2023-04-16T14:33:34.778Z,0.90
2023-04-16T14:36:37.004Z,1.67
2023-04-16T14:39:39.314Z,1.48
2023-04-16T14:42:41.005Z,1.38
2023-04-16T14:45:42.725Z,1.45
2023-04-16T14:48:44.352Z,1.42
2023-04-16T14:51:46.728Z,2.38
2023-04-16T14:54:48.295Z,0.93
2023-04-16T14:57:49.885Z,0.88
2023-04-16T15:00:51.547Z,0.75
2023-04-16T15:03:56.324Z,1.38
2023-04-16T15:07:00.835Z,0.93
2023-04-16T15:10:02.974Z,1.33
2023-04-16T15:13:04.586Z,1.38
2023-04-16T15:16:06.232Z,2.33
2023-04-16T15:19:07.955Z,2.08
2023-04-16T15:22:09.601Z,1.80
2023-04-16T15:25:11.285Z,1.42
2023-04-16T15:28:12.866Z,4.65
2023-04-16T15:31:14.503Z,2.05
2023-04-16T15:34:16.090Z,1.35
2023-04-16T15:37:17.679Z,1.17
2023-04-16T15:40:20.575Z,1.23
2023-04-16T15:43:22.215Z,1.45
2023-04-16T15:46:23.847Z,1.67
2023-04-16T15:49:25.660Z,1.52
2023-04-16T15:52:27.958Z,1.17
2023-04-16T15:55:29.633Z,1.17
2023-04-16T15:58:31.370Z,1.13
2023-04-16T16:01:33.049Z,0.98
2023-04-16T16:04:34.891Z,0.68
2023-04-16T16:07:36.923Z,5.72
2023-04-16T16:10:39.055Z,4.22
2023-04-16T16:13:41.729Z,18.77
2023-04-16T16:16:43.303Z,1.33
2023-04-16T16:19:46.481Z,2.63
2023-04-16T16:22:48.404Z,5.45
2023-04-16T16:25:51.483Z,4.25
2023-04-16T16:28:53.307Z,3.33
2023-04-16T16:31:54.926Z,5.15
2023-04-16T16:34:57.713Z,1.10
2023-04-16T16:37:59.484Z,2.90
2023-04-16T16:41:01.158Z,3.20
2023-04-16T16:44:02.755Z,1.27
2023-04-16T16:47:04.521Z,3.17
2023-04-16T16:50:06.859Z,1.25
2023-04-16T16:53:08.534Z,3.50
2023-04-16T16:56:10.145Z,4.13
2023-04-16T16:59:11.940Z,2.95
2023-04-16T17:02:15.104Z,1.40
2023-04-16T17:05:18.597Z,3.67
2023-04-16T17:08:20.210Z,2.55
2023-04-16T17:11:21.803Z,2.38
2023-04-16T17:14:24.430Z,1.27
2023-04-16T17:17:27.133Z,1.73
2023-04-16T17:20:28.796Z,2.35
2023-04-16T17:23:30.473Z,1.63
2023-04-16T17:26:32.109Z,3.38
2023-04-16T17:29:33.737Z,2.15
2023-04-16T17:32:35.819Z,3.13
2023-04-16T17:35:39.989Z,2.92
2023-04-16T17:38:44.285Z,3.38
2023-04-16T17:41:46.560Z,3.35
2023-04-16T17:44:48.154Z,3.53
2023-04-16T17:47:49.792Z,3.97
2023-04-16T17:50:51.386Z,2.30
2023-04-16T17:53:53.588Z,2.95
2023-04-16T17:56:55.202Z,2.25
2023-04-16T17:59:57.046Z,2.72
2023-04-16T18:02:59.782Z,2.03
2023-04-16T18:06:01.573Z,1.67
2023-04-16T18:09:05.787Z,1.90
2023-04-16T18:12:07.949Z,2.15
2023-04-16T18:15:10.379Z,2.10
2023-04-16T18:18:11.974Z,2.28
2023-04-16T18:21:13.628Z,2.13
2023-04-16T18:24:15.908Z,1.90
2023-04-16T18:27:17.492Z,2.25
2023-04-16T18:30:25.201Z,1.70
2023-04-16T18:33:49.988Z,2.33
2023-04-16T18:36:49.658Z,2.55
2023-04-16T18:39:51.307Z,2.03
2023-04-16T18:42:52.897Z,3.47
2023-04-16T18:45:54.567Z,3.20
2023-04-16T18:48:56.286Z,3.00
2023-04-16T18:51:57.881Z,3.28
2023-04-16T18:54:59.471Z,2.97
2023-04-16T18:58:01.088Z,2.97
2023-04-16T19:01:03.026Z,3.55
2023-04-16T19:04:04.838Z,3.15
2023-04-16T19:07:06.438Z,3.28
2023-04-16T19:10:08.645Z,3.72
2023-04-16T19:13:10.258Z,4.38
2023-04-16T19:16:12.351Z,3.88
2023-04-16T19:19:14.098Z,4.63
2023-04-16T19:22:15.663Z,6.05
2023-04-16T19:25:17.332Z,7.30
2023-04-16T19:28:19.101Z,7.13
2023-04-16T19:31:20.966Z,5.45
2023-04-16T19:34:22.554Z,4.47
2023-04-16T19:37:24.122Z,4.47
2023-04-16T19:40:25.923Z,3.90
2023-04-16T19:43:30.752Z,3.22
2023-04-16T19:46:32.740Z,4.72
2023-04-16T19:49:34.595Z,2.67
2023-04-16T19:52:38.869Z,2.92
2023-04-16T19:55:41.618Z,3.10
2023-04-16T19:58:43.244Z,3.20
2023-04-16T20:01:45.013Z,2.38
2023-04-16T20:04:48.490Z,3.25
2023-04-16T20:07:52.496Z,2.63
2023-04-16T20:10:54.555Z,2.13
2023-04-16T20:14:00.156Z,2.60
2023-04-16T20:17:01.983Z,2.47
2023-04-16T20:20:07.325Z,1.92
2023-04-16T20:23:08.858Z,2.53
2023-04-16T20:26:13.465Z,2.25
2023-04-16T20:29:15.167Z,1.90
2023-04-16T20:32:16.798Z,2.15
2023-04-16T20:35:18.358Z,2.70
2023-04-16T20:38:23.934Z,2.40
2023-04-16T20:41:25.615Z,2.13
2023-04-16T20:44:33.304Z,2.33
2023-04-16T20:47:35.029Z,2.22
2023-04-16T20:50:36.928Z,1.95
2023-04-16T20:53:38.504Z,1.92
2023-04-16T20:56:40.162Z,1.73
2023-04-16T20:59:41.743Z,1.88
2023-04-16T21:02:43.817Z,1.85
2023-04-16T21:05:50.066Z,1.83
2023-04-16T21:08:51.827Z,1.70
2023-04-16T21:11:56.603Z,1.95
2023-04-16T21:14:58.286Z,1.95
2023-04-16T21:17:59.896Z,1.77
2023-04-16T21:21:01.651Z,2.30
2023-04-16T21:24:03.338Z,2.35
2023-04-16T21:27:04.930Z,2.13
2023-04-16T21:30:07.287Z,1.88
2023-04-16T21:33:08.929Z,1.77
2023-04-16T21:36:11.477Z,1.17
2023-04-16T21:39:14.209Z,1.65
2023-04-16T21:42:16.040Z,1.33
2023-04-16T21:45:17.636Z,1.73
2023-04-16T21:48:20.041Z,1.42
2023-04-16T21:51:28.973Z,1.58
2023-04-16T21:54:30.657Z,1.52
2023-04-16T21:57:32.334Z,1.75
2023-04-16T22:00:34.193Z,1.75
2023-04-16T22:03:40.051Z,2.17
2023-04-16T22:06:43.076Z,1.95
2023-04-16T22:09:44.605Z,1.98
2023-04-16T22:12:46.620Z,2.22
2023-04-16T22:15:48.306Z,2.35
2023-04-16T22:18:49.973Z,1.63
2023-04-16T22:21:51.506Z,1.63
2023-04-16T22:24:53.469Z,1.20
2023-04-16T22:27:55.568Z,1.13
2023-04-16T22:30:57.410Z,1.60
2023-04-16T22:33:59.819Z,1.33
2023-04-16T22:37:03.131Z,1.52
2023-04-16T22:40:08.403Z,1.55
2023-04-16T22:43:09.938Z,1.55
2023-04-16T22:46:11.895Z,1.65
2023-04-16T22:49:13.979Z,1.55
2023-04-16T22:52:16.179Z,1.60
2023-04-16T22:55:17.811Z,1.63
2023-04-16T22:58:19.360Z,1.10
2023-04-16T23:01:21.130Z,1.70
2023-04-16T23:04:22.922Z,1.63
2023-04-16T23:07:24.575Z,1.30
2023-04-16T23:10:26.107Z,1.77
2023-04-16T23:13:27.744Z,1.98
2023-04-16T23:16:29.324Z,1.50
2023-04-16T23:19:31.773Z,1.30
2023-04-16T23:22:33.366Z,1.75
2023-04-16T23:25:34.951Z,1.88
2023-04-16T23:28:36.522Z,1.52
2023-04-16T23:31:38.130Z,1.80
2023-04-16T23:34:39.706Z,1.73
2023-04-16T23:37:41.296Z,1.50
2023-04-16T23:40:42.903Z,1.55
2023-04-16T23:43:44.451Z,1.45
2023-04-16T23:46:46.211Z,1.45
2023-04-16T23:49:47.817Z,2.05
2023-04-16T23:52:49.416Z,1.70
2023-04-16T23:55:51.351Z,1.80
2023-04-16T23:58:52.916Z,1.42
